sensor_id;sensor_type;location;lat;lon;timestamp;P1;durP1;ratioP1;P2;durP2;ratioP2
14241;SDS011;7205;50.864;12.766;2023-04-15T00:00:36;9.27;;;6.63;;
14241;SDS011;7205;50.864;12.766;2023-04-15T00:03:03;6.87;;;6.17;;
14241;SDS011;7205;50.864;12.766;2023-04-15T00:05:31;12.60;;;6.77;;
14241;SDS011;7205;50.864;12.766;2023-04-15T00:07:58;10.17;;;7.77;;
14241;SDS011;7205;50.864;12.766;2023-04-15T00:10:26;9.50;;;7.20;;
14241;SDS011;7205;50.864;12.766;2023-04-15T00:12:53;9.40;;;7.00;;
14241;SDS011;7205;50.864;12.766;2023-04-15T00:15:21;9.20;;;6.47;;
14241;SDS011;7205;50.864;12.766;2023-04-15T00:17:50;13.77;;;7.83;;
14241;SDS011;7205;50.864;12.766;2023-04-15T00:20:17;11.53;;;7.57;;
14241;SDS011;7205;50.864;12.766;2023-04-15T00:22:44;10.80;;;7.03;;
14241;SDS011;7205;50.864;12.766;2023-04-15T00:25:11;11.20;;;6.77;;
14241;SDS011;7205;50.864;12.766;2023-04-15T00:27:41;8.07;;;5.50;;
14241;SDS011;7205;50.864;12.766;2023-04-15T00:30:08;9.30;;;6.47;;
14241;SDS011;7205;50.864;12.766;2023-04-15T00:32:36;9.33;;;6.70;;
14241;SDS011;7205;50.864;12.766;2023-04-15T00:35:04;11.23;;;6.07;;
14241;SDS011;7205;50.864;12.766;2023-04-15T00:37:31;13.27;;;6.90;;
14241;SDS011;7205;50.864;12.766;2023-04-15T00:39:59;6.83;;;5.53;;
14241;SDS011;7205;50.864;12.766;2023-04-15T00:42:26;6.83;;;5.53;;
14241;SDS011;7205;50.864;12.766;2023-04-15T00:44:54;7.93;;;5.43;;
14241;SDS011;7205;50.864;12.766;2023-04-15T00:47:21;7.83;;;5.80;;
14241;SDS011;7205;50.864;12.766;2023-04-15T00:49:48;8.30;;;5.83;;
14241;SDS011;7205;50.864;12.766;2023-04-15T00:52:18;8.90;;;5.73;;
14241;SDS011;7205;50.864;12.766;2023-04-15T00:54:46;5.57;;;4.80;;
14241;SDS011;7205;50.864;12.766;2023-04-15T00:57:15;6.33;;;5.40;;
14241;SDS011;7205;50.864;12.766;2023-04-15T00:59:42;6.77;;;5.30;;
14241;SDS011;7205;50.864;12.766;2023-04-15T01:02:09;7.07;;;5.50;;
14241;SDS011;7205;50.864;12.766;2023-04-15T01:04:36;10.23;;;6.20;;
14241;SDS011;7205;50.864;12.766;2023-04-15T01:07:03;9.03;;;5.83;;
14241;SDS011;7205;50.864;12.766;2023-04-15T01:09:31;7.80;;;5.83;;
14241;SDS011;7205;50.864;12.766;2023-04-15T01:11:58;9.10;;;6.43;;
14241;SDS011;7205;50.864;12.766;2023-04-15T01:14:27;6.60;;;5.20;;
14241;SDS011;7205;50.864;12.766;2023-04-15T01:16:54;6.63;;;5.20;;
14241;SDS011;7205;50.864;12.766;2023-04-15T01:19:21;8.07;;;6.00;;
14241;SDS011;7205;50.864;12.766;2023-04-15T01:21:48;6.40;;;5.30;;
14241;SDS011;7205;50.864;12.766;2023-04-15T01:24:17;8.47;;;5.97;;
14241;SDS011;7205;50.864;12.766;2023-04-15T01:26:46;7.40;;;5.53;;
14241;SDS011;7205;50.864;12.766;2023-04-15T01:29:14;9.77;;;4.63;;
14241;SDS011;7205;50.864;12.766;2023-04-15T01:31:47;6.87;;;4.63;;
14241;SDS011;7205;50.864;12.766;2023-04-15T01:34:16;5.83;;;5.00;;
14241;SDS011;7205;50.864;12.766;2023-04-15T01:36:45;6.63;;;4.63;;
14241;SDS011;7205;50.864;12.766;2023-04-15T01:39:12;6.53;;;5.10;;
14241;SDS011;7205;50.864;12.766;2023-04-15T01:41:39;7.63;;;5.23;;
14241;SDS011;7205;50.864;12.766;2023-04-15T01:44:10;7.57;;;5.10;;
14241;SDS011;7205;50.864;12.766;2023-04-15T01:46:38;6.67;;;5.10;;
14241;SDS011;7205;50.864;12.766;2023-04-15T01:49:05;8.00;;;5.50;;
14241;SDS011;7205;50.864;12.766;2023-04-15T01:51:32;7.40;;;5.80;;
14241;SDS011;7205;50.864;12.766;2023-04-15T01:53:58;12.00;;;6.93;;
14241;SDS011;7205;50.864;12.766;2023-04-15T01:56:25;10.67;;;7.30;;
14241;SDS011;7205;50.864;12.766;2023-04-15T01:58:52;8.60;;;6.10;;
14241;SDS011;7205;50.864;12.766;2023-04-15T02:01:20;8.77;;;6.63;;
14241;SDS011;7205;50.864;12.766;2023-04-15T02:03:47;11.43;;;8.23;;
14241;SDS011;7205;50.864;12.766;2023-04-15T02:06:14;14.30;;;8.93;;
14241;SDS011;7205;50.864;12.766;2023-04-15T02:08:41;10.70;;;7.57;;
14241;SDS011;7205;50.864;12.766;2023-04-15T02:11:08;15.33;;;9.13;;
14241;SDS011;7205;50.864;12.766;2023-04-15T02:13:35;12.87;;;8.80;;
14241;SDS011;7205;50.864;12.766;2023-04-15T02:16:02;14.97;;;9.07;;
14241;SDS011;7205;50.864;12.766;2023-04-15T02:18:30;13.93;;;8.97;;
14241;SDS011;7205;50.864;12.766;2023-04-15T02:20:57;12.03;;;7.83;;
14241;SDS011;7205;50.864;12.766;2023-04-15T02:23:24;12.83;;;7.97;;
14241;SDS011;7205;50.864;12.766;2023-04-15T02:25:50;13.53;;;8.43;;
14241;SDS011;7205;50.864;12.766;2023-04-15T02:28:17;22.87;;;11.03;;
14241;SDS011;7205;50.864;12.766;2023-04-15T02:30:46;27.90;;;10.73;;
14241;SDS011;7205;50.864;12.766;2023-04-15T02:33:13;15.40;;;8.67;;
14241;SDS011;7205;50.864;12.766;2023-04-15T02:35:42;17.87;;;9.73;;
14241;SDS011;7205;50.864;12.766;2023-04-15T02:38:09;17.43;;;9.47;;
14241;SDS011;7205;50.864;12.766;2023-04-15T02:40:36;11.33;;;7.90;;
14241;SDS011;7205;50.864;12.766;2023-04-15T02:43:03;13.10;;;8.63;;
14241;SDS011;7205;50.864;12.766;2023-04-15T02:45:32;18.67;;;9.80;;
14241;SDS011;7205;50.864;12.766;2023-04-15T02:48:01;13.97;;;7.87;;
14241;SDS011;7205;50.864;12.766;2023-04-15T02:50:30;26.50;;;10.57;;
14241;SDS011;7205;50.864;12.766;2023-04-15T02:52:58;11.63;;;7.70;;
14241;SDS011;7205;50.864;12.766;2023-04-15T02:55:27;17.13;;;9.17;;
14241;SDS011;7205;50.864;12.766;2023-04-15T02:57:54;12.43;;;7.43;;
14241;SDS011;7205;50.864;12.766;2023-04-15T03:00:22;12.20;;;6.97;;
14241;SDS011;7205;50.864;12.766;2023-04-15T03:02:49;11.10;;;7.10;;
14241;SDS011;7205;50.864;12.766;2023-04-15T03:05:20;19.80;;;7.43;;
14241;SDS011;7205;50.864;12.766;2023-04-15T03:07:49;13.17;;;8.10;;
14241;SDS011;7205;50.864;12.766;2023-04-15T03:10:19;10.23;;;6.90;;
14241;SDS011;7205;50.864;12.766;2023-04-15T03:12:46;6.87;;;5.97;;
14241;SDS011;7205;50.864;12.766;2023-04-15T03:15:16;9.33;;;6.30;;
14241;SDS011;7205;50.864;12.766;2023-04-15T03:17:47;11.80;;;6.73;;
14241;SDS011;7205;50.864;12.766;2023-04-15T03:20:14;10.97;;;6.13;;
14241;SDS011;7205;50.864;12.766;2023-04-15T03:22:42;12.17;;;5.93;;
14241;SDS011;7205;50.864;12.766;2023-04-15T03:25:08;10.37;;;6.70;;
14241;SDS011;7205;50.864;12.766;2023-04-15T03:27:38;9.37;;;6.37;;
14241;SDS011;7205;50.864;12.766;2023-04-15T03:30:05;9.43;;;6.33;;
14241;SDS011;7205;50.864;12.766;2023-04-15T03:32:35;7.40;;;5.17;;
14241;SDS011;7205;50.864;12.766;2023-04-15T03:35:04;7.93;;;5.40;;
14241;SDS011;7205;50.864;12.766;2023-04-15T03:37:32;9.93;;;6.37;;
14241;SDS011;7205;50.864;12.766;2023-04-15T03:39:59;6.87;;;5.70;;
14241;SDS011;7205;50.864;12.766;2023-04-15T03:42:25;10.77;;;6.17;;
14241;SDS011;7205;50.864;12.766;2023-04-15T03:44:53;7.67;;;5.63;;
14241;SDS011;7205;50.864;12.766;2023-04-15T03:47:20;8.77;;;5.60;;
14241;SDS011;7205;50.864;12.766;2023-04-15T03:49:48;9.50;;;6.20;;
14241;SDS011;7205;50.864;12.766;2023-04-15T03:52:14;8.53;;;5.97;;
14241;SDS011;7205;50.864;12.766;2023-04-15T03:54:41;6.43;;;4.80;;
14241;SDS011;7205;50.864;12.766;2023-04-15T03:57:08;8.93;;;5.90;;
14241;SDS011;7205;50.864;12.766;2023-04-15T03:59:35;8.93;;;5.93;;
14241;SDS011;7205;50.864;12.766;2023-04-15T04:02:03;14.13;;;7.13;;
14241;SDS011;7205;50.864;12.766;2023-04-15T04:04:30;13.67;;;7.07;;
14241;SDS011;7205;50.864;12.766;2023-04-15T04:06:56;16.97;;;7.00;;
14241;SDS011;7205;50.864;12.766;2023-04-15T04:09:23;12.23;;;7.17;;
14241;SDS011;7205;50.864;12.766;2023-04-15T04:11:50;16.40;;;8.30;;
14241;SDS011;7205;50.864;12.766;2023-04-15T04:14:17;14.30;;;7.50;;
14241;SDS011;7205;50.864;12.766;2023-04-15T04:16:43;15.30;;;8.27;;
14241;SDS011;7205;50.864;12.766;2023-04-15T04:19:12;16.43;;;8.20;;
14241;SDS011;7205;50.864;12.766;2023-04-15T04:21:39;20.03;;;9.70;;
14241;SDS011;7205;50.864;12.766;2023-04-15T04:24:05;23.27;;;10.57;;
14241;SDS011;7205;50.864;12.766;2023-04-15T04:26:32;68.73;;;12.80;;
14241;SDS011;7205;50.864;12.766;2023-04-15T04:28:59;126.70;;;16.17;;
14241;SDS011;7205;50.864;12.766;2023-04-15T04:31:26;74.17;;;14.07;;
14241;SDS011;7205;50.864;12.766;2023-04-15T04:33:53;120.10;;;18.07;;
14241;SDS011;7205;50.864;12.766;2023-04-15T04:36:21;158.87;;;17.03;;
14241;SDS011;7205;50.864;12.766;2023-04-15T04:38:48;62.00;;;12.27;;
14241;SDS011;7205;50.864;12.766;2023-04-15T04:41:15;97.10;;;13.87;;
14241;SDS011;7205;50.864;12.766;2023-04-15T04:43:42;148.60;;;15.90;;
14241;SDS011;7205;50.864;12.766;2023-04-15T04:46:08;360.10;;;23.53;;
14241;SDS011;7205;50.864;12.766;2023-04-15T04:48:36;74.80;;;13.53;;
14241;SDS011;7205;50.864;12.766;2023-04-15T04:51:03;63.90;;;12.30;;
14241;SDS011;7205;50.864;12.766;2023-04-15T04:53:31;89.97;;;13.77;;
14241;SDS011;7205;50.864;12.766;2023-04-15T04:55:58;78.40;;;12.23;;
14241;SDS011;7205;50.864;12.766;2023-04-15T04:58:25;329.40;;;22.00;;
14241;SDS011;7205;50.864;12.766;2023-04-15T05:00:52;164.07;;;15.40;;
14241;SDS011;7205;50.864;12.766;2023-04-15T05:03:18;148.17;;;14.47;;
14241;SDS011;7205;50.864;12.766;2023-04-15T05:05:45;163.40;;;15.30;;
14241;SDS011;7205;50.864;12.766;2023-04-15T05:08:13;150.60;;;13.30;;
14241;SDS011;7205;50.864;12.766;2023-04-15T05:10:41;284.17;;;20.90;;
14241;SDS011;7205;50.864;12.766;2023-04-15T05:13:08;163.83;;;15.70;;
14241;SDS011;7205;50.864;12.766;2023-04-15T05:15:35;168.57;;;14.60;;
14241;SDS011;7205;50.864;12.766;2023-04-15T05:18:03;119.77;;;13.57;;
14241;SDS011;7205;50.864;12.766;2023-04-15T05:20:30;49.00;;;9.93;;
14241;SDS011;7205;50.864;12.766;2023-04-15T05:22:57;52.83;;;10.00;;
14241;SDS011;7205;50.864;12.766;2023-04-15T05:25:24;21.63;;;8.17;;
14241;SDS011;7205;50.864;12.766;2023-04-15T05:27:52;16.10;;;6.67;;
14241;SDS011;7205;50.864;12.766;2023-04-15T05:30:19;32.43;;;7.30;;
14241;SDS011;7205;50.864;12.766;2023-04-15T05:32:46;16.80;;;5.77;;
14241;SDS011;7205;50.864;12.766;2023-04-15T05:35:13;16.97;;;6.53;;
14241;SDS011;7205;50.864;12.766;2023-04-15T05:37:40;10.90;;;5.57;;
14241;SDS011;7205;50.864;12.766;2023-04-15T05:40:07;7.70;;;4.97;;
14241;SDS011;7205;50.864;12.766;2023-04-15T05:42:34;7.07;;;4.50;;
14241;SDS011;7205;50.864;12.766;2023-04-15T05:45:03;7.80;;;5.03;;
14241;SDS011;7205;50.864;12.766;2023-04-15T05:47:33;9.67;;;5.47;;
14241;SDS011;7205;50.864;12.766;2023-04-15T05:50:00;12.20;;;6.63;;
14241;SDS011;7205;50.864;12.766;2023-04-15T05:52:27;10.77;;;6.07;;
14241;SDS011;7205;50.864;12.766;2023-04-15T05:54:54;11.03;;;5.83;;
14241;SDS011;7205;50.864;12.766;2023-04-15T05:57:21;8.57;;;5.00;;
14241;SDS011;7205;50.864;12.766;2023-04-15T05:59:48;8.10;;;5.43;;
14241;SDS011;7205;50.864;12.766;2023-04-15T06:02:17;5.50;;;3.73;;
14241;SDS011;7205;50.864;12.766;2023-04-15T06:04:44;3.93;;;3.50;;
14241;SDS011;7205;50.864;12.766;2023-04-15T06:07:11;3.90;;;3.30;;
14241;SDS011;7205;50.864;12.766;2023-04-15T06:09:38;5.03;;;3.93;;
14241;SDS011;7205;50.864;12.766;2023-04-15T06:12:05;4.77;;;3.53;;
14241;SDS011;7205;50.864;12.766;2023-04-15T06:14:36;4.53;;;3.70;;
14241;SDS011;7205;50.864;12.766;2023-04-15T06:17:03;4.10;;;3.70;;
14241;SDS011;7205;50.864;12.766;2023-04-15T06:19:31;3.93;;;3.53;;
14241;SDS011;7205;50.864;12.766;2023-04-15T06:21:57;4.97;;;4.00;;
14241;SDS011;7205;50.864;12.766;2023-04-15T06:24:24;5.67;;;4.10;;
14241;SDS011;7205;50.864;12.766;2023-04-15T06:26:51;4.17;;;3.60;;
14241;SDS011;7205;50.864;12.766;2023-04-15T06:29:18;4.60;;;3.93;;
14241;SDS011;7205;50.864;12.766;2023-04-15T06:31:46;3.97;;;3.67;;
14241;SDS011;7205;50.864;12.766;2023-04-15T06:34:13;4.70;;;4.17;;
14241;SDS011;7205;50.864;12.766;2023-04-15T06:36:41;6.47;;;5.50;;
14241;SDS011;7205;50.864;12.766;2023-04-15T06:39:08;3.60;;;3.30;;
14241;SDS011;7205;50.864;12.766;2023-04-15T06:41:35;3.03;;;2.83;;
14241;SDS011;7205;50.864;12.766;2023-04-15T06:44:01;3.00;;;2.80;;
14241;SDS011;7205;50.864;12.766;2023-04-15T06:46:28;3.00;;;2.80;;
14241;SDS011;7205;50.864;12.766;2023-04-15T06:48:55;3.70;;;3.40;;
14241;SDS011;7205;50.864;12.766;2023-04-15T06:51:22;2.80;;;2.57;;
14241;SDS011;7205;50.864;12.766;2023-04-15T06:53:50;3.33;;;3.03;;
14241;SDS011;7205;50.864;12.766;2023-04-15T06:56:17;3.07;;;2.87;;
14241;SDS011;7205;50.864;12.766;2023-04-15T06:58:44;2.50;;;2.30;;
14241;SDS011;7205;50.864;12.766;2023-04-15T07:01:11;2.20;;;2.10;;
14241;SDS011;7205;50.864;12.766;2023-04-15T07:03:39;1.97;;;1.87;;
14241;SDS011;7205;50.864;12.766;2023-04-15T07:06:07;2.40;;;2.30;;
14241;SDS011;7205;50.864;12.766;2023-04-15T07:08:34;3.60;;;3.30;;
14241;SDS011;7205;50.864;12.766;2023-04-15T07:11:02;5.90;;;5.37;;
14241;SDS011;7205;50.864;12.766;2023-04-15T07:13:30;6.43;;;5.83;;
14241;SDS011;7205;50.864;12.766;2023-04-15T07:15:57;7.57;;;6.80;;
14241;SDS011;7205;50.864;12.766;2023-04-15T07:18:24;5.80;;;5.30;;
14241;SDS011;7205;50.864;12.766;2023-04-15T07:20:51;3.50;;;3.20;;
14241;SDS011;7205;50.864;12.766;2023-04-15T07:23:17;2.93;;;2.73;;
14241;SDS011;7205;50.864;12.766;2023-04-15T07:25:45;2.20;;;2.07;;
14241;SDS011;7205;50.864;12.766;2023-04-15T07:28:13;3.90;;;3.60;;
14241;SDS011;7205;50.864;12.766;2023-04-15T07:30:40;6.37;;;5.77;;
14241;SDS011;7205;50.864;12.766;2023-04-15T07:33:07;3.57;;;3.37;;
14241;SDS011;7205;50.864;12.766;2023-04-15T07:35:34;3.50;;;3.30;;
14241;SDS011;7205;50.864;12.766;2023-04-15T07:38:01;3.70;;;3.40;;
14241;SDS011;7205;50.864;12.766;2023-04-15T07:40:27;4.20;;;3.83;;
14241;SDS011;7205;50.864;12.766;2023-04-15T07:42:54;2.97;;;2.77;;
14241;SDS011;7205;50.864;12.766;2023-04-15T07:45:30;3.20;;;3.00;;
14241;SDS011;7205;50.864;12.766;2023-04-15T07:47:59;2.87;;;2.67;;
14241;SDS011;7205;50.864;12.766;2023-04-15T07:50:25;3.43;;;3.20;;
14241;SDS011;7205;50.864;12.766;2023-04-15T07:52:52;3.93;;;3.63;;
14241;SDS011;7205;50.864;12.766;2023-04-15T07:55:20;3.40;;;3.10;;
14241;SDS011;7205;50.864;12.766;2023-04-15T07:57:47;2.60;;;2.50;;
14241;SDS011;7205;50.864;12.766;2023-04-15T08:00:15;3.43;;;3.23;;
14241;SDS011;7205;50.864;12.766;2023-04-15T08:02:43;3.13;;;2.93;;
14241;SDS011;7205;50.864;12.766;2023-04-15T08:05:12;2.17;;;2.07;;
14241;SDS011;7205;50.864;12.766;2023-04-15T08:07:39;2.20;;;2.10;;
14241;SDS011;7205;50.864;12.766;2023-04-15T08:10:06;2.30;;;2.20;;
14241;SDS011;7205;50.864;12.766;2023-04-15T08:12:34;2.60;;;2.40;;
14241;SDS011;7205;50.864;12.766;2023-04-15T08:15:01;2.50;;;2.40;;
14241;SDS011;7205;50.864;12.766;2023-04-15T08:17:28;2.40;;;2.30;;
14241;SDS011;7205;50.864;12.766;2023-04-15T08:19:56;2.37;;;2.27;;
14241;SDS011;7205;50.864;12.766;2023-04-15T08:22:23;2.10;;;2.00;;
14241;SDS011;7205;50.864;12.766;2023-04-15T08:24:49;2.00;;;1.90;;
14241;SDS011;7205;50.864;12.766;2023-04-15T08:27:16;2.07;;;1.97;;
14241;SDS011;7205;50.864;12.766;2023-04-15T08:29:43;2.07;;;1.97;;
14241;SDS011;7205;50.864;12.766;2023-04-15T08:32:10;2.20;;;2.10;;
14241;SDS011;7205;50.864;12.766;2023-04-15T08:34:37;2.13;;;2.03;;
14241;SDS011;7205;50.864;12.766;2023-04-15T08:37:05;1.73;;;1.63;;
14241;SDS011;7205;50.864;12.766;2023-04-15T08:39:32;1.90;;;1.80;;
14241;SDS011;7205;50.864;12.766;2023-04-15T08:41:59;2.17;;;2.07;;
14241;SDS011;7205;50.864;12.766;2023-04-15T08:44:28;1.80;;;1.70;;
14241;SDS011;7205;50.864;12.766;2023-04-15T08:46:56;1.73;;;1.63;;
14241;SDS011;7205;50.864;12.766;2023-04-15T08:49:26;1.80;;;1.70;;
14241;SDS011;7205;50.864;12.766;2023-04-15T08:51:55;1.93;;;1.83;;
14241;SDS011;7205;50.864;12.766;2023-04-15T08:54:26;1.97;;;1.87;;
14241;SDS011;7205;50.864;12.766;2023-04-15T08:56:53;2.27;;;2.10;;
14241;SDS011;7205;50.864;12.766;2023-04-15T08:59:20;2.50;;;2.40;;
14241;SDS011;7205;50.864;12.766;2023-04-15T09:01:47;2.30;;;2.20;;
14241;SDS011;7205;50.864;12.766;2023-04-15T09:04:15;2.20;;;2.10;;
14241;SDS011;7205;50.864;12.766;2023-04-15T09:06:43;1.80;;;1.70;;
14241;SDS011;7205;50.864;12.766;2023-04-15T09:09:11;1.90;;;1.80;;
14241;SDS011;7205;50.864;12.766;2023-04-15T09:11:39;1.57;;;1.47;;
14241;SDS011;7205;50.864;12.766;2023-04-15T09:14:07;2.27;;;2.17;;
14241;SDS011;7205;50.864;12.766;2023-04-15T09:19:22;2.77;;;2.57;;
14241;SDS011;7205;50.864;12.766;2023-04-15T09:21:51;2.27;;;2.17;;
14241;SDS011;7205;50.864;12.766;2023-04-15T09:24:21;2.17;;;2.07;;
14241;SDS011;7205;50.864;12.766;2023-04-15T09:26:52;1.80;;;1.70;;
14241;SDS011;7205;50.864;12.766;2023-04-15T09:29:20;1.97;;;1.87;;
14241;SDS011;7205;50.864;12.766;2023-04-15T09:31:50;1.57;;;1.50;;
14241;SDS011;7205;50.864;12.766;2023-04-15T09:34:17;1.60;;;1.50;;
14241;SDS011;7205;50.864;12.766;2023-04-15T09:36:53;1.60;;;1.50;;
14241;SDS011;7205;50.864;12.766;2023-04-15T09:39:22;3.13;;;2.93;;
14241;SDS011;7205;50.864;12.766;2023-04-15T09:42:06;2.73;;;2.50;;
14241;SDS011;7205;50.864;12.766;2023-04-15T09:44:33;2.73;;;1.87;;
14241;SDS011;7205;50.864;12.766;2023-04-15T09:47:01;1.50;;;1.40;;
14241;SDS011;7205;50.864;12.766;2023-04-15T09:49:29;2.10;;;2.00;;
14241;SDS011;7205;50.864;12.766;2023-04-15T09:51:57;2.97;;;2.77;;
14241;SDS011;7205;50.864;12.766;2023-04-15T09:54:31;1.83;;;1.73;;
14241;SDS011;7205;50.864;12.766;2023-04-15T09:57:04;2.30;;;2.20;;
14241;SDS011;7205;50.864;12.766;2023-04-15T09:59:33;2.00;;;1.90;;
14241;SDS011;7205;50.864;12.766;2023-04-15T10:02:01;2.13;;;1.97;;
14241;SDS011;7205;50.864;12.766;2023-04-15T10:04:34;1.90;;;1.80;;
14241;SDS011;7205;50.864;12.766;2023-04-15T10:07:05;1.77;;;1.70;;
14241;SDS011;7205;50.864;12.766;2023-04-15T10:09:34;2.43;;;2.13;;
14241;SDS011;7205;50.864;12.766;2023-04-15T10:12:01;1.93;;;1.83;;
14241;SDS011;7205;50.864;12.766;2023-04-15T10:14:31;2.00;;;1.90;;
14241;SDS011;7205;50.864;12.766;2023-04-15T10:17:00;1.37;;;1.33;;
14241;SDS011;7205;50.864;12.766;2023-04-15T10:19:30;1.73;;;1.63;;
14241;SDS011;7205;50.864;12.766;2023-04-15T10:22:02;1.70;;;1.60;;
14241;SDS011;7205;50.864;12.766;2023-04-15T10:24:29;1.70;;;1.60;;
14241;SDS011;7205;50.864;12.766;2023-04-15T10:26:58;4.47;;;3.80;;
14241;SDS011;7205;50.864;12.766;2023-04-15T10:29:26;2.33;;;2.23;;
14241;SDS011;7205;50.864;12.766;2023-04-15T10:31:57;7.77;;;7.07;;
14241;SDS011;7205;50.864;12.766;2023-04-15T10:34:25;7.83;;;7.03;;
14241;SDS011;7205;50.864;12.766;2023-04-15T10:36:54;4.43;;;3.70;;
14241;SDS011;7205;50.864;12.766;2023-04-15T10:42:07;3.03;;;2.83;;
14241;SDS011;7205;50.864;12.766;2023-04-15T10:44:35;2.37;;;2.00;;
14241;SDS011;7205;50.864;12.766;2023-04-15T10:47:10;2.90;;;2.70;;
14241;SDS011;7205;50.864;12.766;2023-04-15T10:49:44;1.43;;;1.43;;
14241;SDS011;7205;50.864;12.766;2023-04-15T10:52:13;1.90;;;1.80;;
14241;SDS011;7205;50.864;12.766;2023-04-15T10:54:41;1.90;;;1.80;;
14241;SDS011;7205;50.864;12.766;2023-04-15T10:57:08;1.73;;;1.63;;
14241;SDS011;7205;50.864;12.766;2023-04-15T10:59:59;2.00;;;1.90;;
14241;SDS011;7205;50.864;12.766;2023-04-15T11:02:40;1.60;;;1.57;;
14241;SDS011;7205;50.864;12.766;2023-04-15T11:05:08;1.73;;;1.63;;
14241;SDS011;7205;50.864;12.766;2023-04-15T11:07:37;4.33;;;3.93;;
14241;SDS011;7205;50.864;12.766;2023-04-15T11:13:17;2.40;;;1.90;;
14241;SDS011;7205;50.864;12.766;2023-04-15T11:15:47;1.90;;;1.80;;
14241;SDS011;7205;50.864;12.766;2023-04-15T11:18:16;1.80;;;1.70;;
14241;SDS011;7205;50.864;12.766;2023-04-15T11:20:44;2.17;;;2.07;;
14241;SDS011;7205;50.864;12.766;2023-04-15T11:23:13;1.87;;;1.77;;
14241;SDS011;7205;50.864;12.766;2023-04-15T11:25:40;1.50;;;1.40;;
14241;SDS011;7205;50.864;12.766;2023-04-15T11:28:08;1.30;;;1.30;;
14241;SDS011;7205;50.864;12.766;2023-04-15T11:30:35;1.60;;;1.50;;
14241;SDS011;7205;50.864;12.766;2023-04-15T11:33:04;1.50;;;1.40;;
14241;SDS011;7205;50.864;12.766;2023-04-15T11:35:34;1.30;;;1.20;;
14241;SDS011;7205;50.864;12.766;2023-04-15T11:38:02;1.40;;;1.40;;
14241;SDS011;7205;50.864;12.766;2023-04-15T11:40:29;1.70;;;1.40;;
14241;SDS011;7205;50.864;12.766;2023-04-15T11:43:04;1.40;;;1.40;;
14241;SDS011;7205;50.864;12.766;2023-04-15T11:45:32;1.80;;;1.70;;
14241;SDS011;7205;50.864;12.766;2023-04-15T11:48:04;1.20;;;1.20;;
14241;SDS011;7205;50.864;12.766;2023-04-15T11:50:33;1.53;;;1.47;;
14241;SDS011;7205;50.864;12.766;2023-04-15T11:53:01;1.40;;;1.40;;
14241;SDS011;7205;50.864;12.766;2023-04-15T11:55:30;1.47;;;1.43;;
14241;SDS011;7205;50.864;12.766;2023-04-15T11:58:09;1.60;;;1.50;;
14241;SDS011;7205;50.864;12.766;2023-04-15T12:00:37;1.93;;;1.83;;
14241;SDS011;7205;50.864;12.766;2023-04-15T12:03:11;1.43;;;1.43;;
14241;SDS011;7205;50.864;12.766;2023-04-15T12:08:56;2.40;;;2.30;;
14241;SDS011;7205;50.864;12.766;2023-04-15T12:14:18;2.23;;;2.13;;
14241;SDS011;7205;50.864;12.766;2023-04-15T12:16:48;2.10;;;2.00;;
14241;SDS011;7205;50.864;12.766;2023-04-15T12:19:16;2.50;;;2.40;;
14241;SDS011;7205;50.864;12.766;2023-04-15T12:21:49;2.40;;;2.30;;
14241;SDS011;7205;50.864;12.766;2023-04-15T12:24:18;2.17;;;2.07;;
14241;SDS011;7205;50.864;12.766;2023-04-15T12:26:47;2.00;;;1.90;;
14241;SDS011;7205;50.864;12.766;2023-04-15T12:29:15;2.20;;;2.10;;
14241;SDS011;7205;50.864;12.766;2023-04-15T12:31:46;2.10;;;2.00;;
14241;SDS011;7205;50.864;12.766;2023-04-15T12:34:15;11.63;;;6.63;;
14241;SDS011;7205;50.864;12.766;2023-04-15T12:36:44;8.00;;;5.40;;
14241;SDS011;7205;50.864;12.766;2023-04-15T12:39:12;9.57;;;5.60;;
14241;SDS011;7205;50.864;12.766;2023-04-15T12:41:39;2.50;;;2.40;;
14241;SDS011;7205;50.864;12.766;2023-04-15T12:44:06;3.50;;;3.30;;
14241;SDS011;7205;50.864;12.766;2023-04-15T12:46:33;2.60;;;2.50;;
14241;SDS011;7205;50.864;12.766;2023-04-15T12:49:03;2.77;;;2.67;;
14241;SDS011;7205;50.864;12.766;2023-04-15T12:51:29;3.67;;;3.43;;
14241;SDS011;7205;50.864;12.766;2023-04-15T12:53:57;2.70;;;2.60;;
14241;SDS011;7205;50.864;12.766;2023-04-15T12:56:25;2.03;;;1.93;;
14241;SDS011;7205;50.864;12.766;2023-04-15T12:58:52;2.57;;;2.40;;
14241;SDS011;7205;50.864;12.766;2023-04-15T13:01:19;3.50;;;3.30;;
14241;SDS011;7205;50.864;12.766;2023-04-15T13:03:46;2.97;;;2.77;;
14241;SDS011;7205;50.864;12.766;2023-04-15T13:06:14;3.43;;;3.20;;
14241;SDS011;7205;50.864;12.766;2023-04-15T13:08:41;3.13;;;2.93;;
14241;SDS011;7205;50.864;12.766;2023-04-15T13:11:08;3.30;;;3.10;;
14241;SDS011;7205;50.864;12.766;2023-04-15T13:13:37;3.10;;;2.90;;
14241;SDS011;7205;50.864;12.766;2023-04-15T13:16:04;2.80;;;2.70;;
14241;SDS011;7205;50.864;12.766;2023-04-15T13:18:31;3.00;;;2.90;;
14241;SDS011;7205;50.864;12.766;2023-04-15T13:20:59;2.93;;;2.73;;
14241;SDS011;7205;50.864;12.766;2023-04-15T13:23:25;3.07;;;2.87;;
14241;SDS011;7205;50.864;12.766;2023-04-15T13:25:52;3.20;;;3.00;;
14241;SDS011;7205;50.864;12.766;2023-04-15T13:28:19;3.10;;;2.90;;
14241;SDS011;7205;50.864;12.766;2023-04-15T13:30:47;3.23;;;3.07;;
14241;SDS011;7205;50.864;12.766;2023-04-15T13:33:15;3.07;;;2.87;;
14241;SDS011;7205;50.864;12.766;2023-04-15T13:35:42;3.33;;;3.20;;
14241;SDS011;7205;50.864;12.766;2023-04-15T13:38:09;2.57;;;2.47;;
14241;SDS011;7205;50.864;12.766;2023-04-15T13:40:36;2.70;;;2.60;;
14241;SDS011;7205;50.864;12.766;2023-04-15T13:43:03;2.77;;;2.67;;
14241;SDS011;7205;50.864;12.766;2023-04-15T13:45:30;2.80;;;2.60;;
14241;SDS011;7205;50.864;12.766;2023-04-15T13:47:58;2.57;;;2.47;;
14241;SDS011;7205;50.864;12.766;2023-04-15T13:50:25;2.90;;;2.70;;
14241;SDS011;7205;50.864;12.766;2023-04-15T13:52:52;3.20;;;3.00;;
14241;SDS011;7205;50.864;12.766;2023-04-15T13:55:19;3.30;;;3.10;;
14241;SDS011;7205;50.864;12.766;2023-04-15T13:57:46;3.50;;;3.30;;
14241;SDS011;7205;50.864;12.766;2023-04-15T14:00:14;3.00;;;2.90;;
14241;SDS011;7205;50.864;12.766;2023-04-15T14:02:42;3.97;;;3.77;;
14241;SDS011;7205;50.864;12.766;2023-04-15T14:05:10;4.17;;;3.90;;
14241;SDS011;7205;50.864;12.766;2023-04-15T14:07:37;3.93;;;3.73;;
14241;SDS011;7205;50.864;12.766;2023-04-15T14:10:04;4.33;;;4.13;;
14241;SDS011;7205;50.864;12.766;2023-04-15T14:12:31;4.03;;;3.73;;
14241;SDS011;7205;50.864;12.766;2023-04-15T14:14:58;3.80;;;3.60;;
14241;SDS011;7205;50.864;12.766;2023-04-15T14:17:26;3.80;;;3.60;;
14241;SDS011;7205;50.864;12.766;2023-04-15T14:19:53;3.77;;;3.57;;
14241;SDS011;7205;50.864;12.766;2023-04-15T14:22:23;3.77;;;3.50;;
14241;SDS011;7205;50.864;12.766;2023-04-15T14:24:50;3.50;;;3.30;;
14241;SDS011;7205;50.864;12.766;2023-04-15T14:27:19;3.60;;;3.40;;
14241;SDS011;7205;50.864;12.766;2023-04-15T14:29:46;3.27;;;3.13;;
14241;SDS011;7205;50.864;12.766;2023-04-15T14:32:13;3.90;;;3.70;;
14241;SDS011;7205;50.864;12.766;2023-04-15T14:34:40;3.50;;;3.30;;
14241;SDS011;7205;50.864;12.766;2023-04-15T14:37:07;4.60;;;4.30;;
14241;SDS011;7205;50.864;12.766;2023-04-15T14:39:35;4.77;;;4.47;;
14241;SDS011;7205;50.864;12.766;2023-04-15T14:42:02;3.57;;;3.40;;
14241;SDS011;7205;50.864;12.766;2023-04-15T14:44:29;4.33;;;3.93;;
14241;SDS011;7205;50.864;12.766;2023-04-15T14:46:55;3.90;;;3.70;;
14241;SDS011;7205;50.864;12.766;2023-04-15T14:49:22;4.50;;;4.20;;
14241;SDS011;7205;50.864;12.766;2023-04-15T14:51:50;4.03;;;3.83;;
14241;SDS011;7205;50.864;12.766;2023-04-15T14:54:16;4.97;;;4.57;;
14241;SDS011;7205;50.864;12.766;2023-04-15T14:56:45;6.53;;;5.83;;
14241;SDS011;7205;50.864;12.766;2023-04-15T14:59:11;8.40;;;6.13;;
14241;SDS011;7205;50.864;12.766;2023-04-15T15:01:38;4.63;;;4.33;;